EW3414 Weather Reports


Display with metric or nautical units.
time (UTC)temp
F
wind
direction
speed
MPH
gust
MPH
rain 1hr
in
rain 24hr
in
rain mn
in
humidity
%
barometer
mb
20210926044549 64 167 4.0 8.0 0.01 2.52 2.52 93 1014.2
20210926043027 64 171 6.0 11.0 0.01 2.52 2.52 93 1014.5
20210926041514 64 167 5.0 10.0 0.01 2.52 2.52 92 1014.6
20210926040011 64 150 4.0 10.0 0.01 2.52 2.52 93 1014.7
20210926034535 64 167 3.0 10.0 0.00 2.52 2.52 93 1014.8
20210926033007 64 161 6.0 10.0 0.00 2.52 2.52 92 1014.8
20210926031504 64 165 5.0 9.0 0.00 2.52 2.52 92 1015.0
20210926030002 64 167 4.0 8.0 0.00 2.52 2.52 92 1015.1
20210926024653 64 163 2.0 7.0 0.00 2.52 2.52 92 1015.2
20210926023136 65 128 3.0 7.0 0.00 2.52 2.52 92 1015.4
20210926021616 65 131 3.0 7.0 0.03 2.52 2.52 93 1015.4
20210926020119 65 146 4.0 9.0 0.06 2.52 2.52 93 1015.6
20210926014655 65 146 4.0 7.0 0.12 2.52 2.52 93 1015.6
20210926011741 65 137 4.0 8.0 0.15 2.50 2.49 92 1015.8
20210926010132 65 147 3.0 7.0 0.27 2.46 2.45 92 1015.8
20210926004620 65 153 4.0 9.0 0.26 2.41 2.40 92 1016.0
20210926003124 65 133 2.0 7.0 0.64 2.40 2.39 92 1016.0
20210926001646 65 138 1.0 7.0 0.76 2.33 2.31 93 1016.2
20210926000140 65 114 3.0 10.0 0.90 2.19 2.18 92 1016.4
20210925234721 65 127 3.0 10.0 0.92 2.15 2.14 92 1016.4
20210925231632 65 160 3.0 7.0 0.34 1.53 1.52 93 1016.6
20210925230101 65 134 0.0 3.0 0.09 1.28 1.27 93 1016.6
20210925224543 65 134 0.0 1.0 0.04 1.23 1.22 93 1016.6
20210925223048 65 134 1.0 4.0 0.02 1.21 1.20 93 1016.5
20210925221610 65 134 0.0 2.0 0.00 1.19 1.18 92 1016.4
20210925220053 65 132 1.0 3.0 0.04 1.19 1.18 92 1016.5
20210925214640 65 132 2.0 5.0 0.04 1.19 1.18 92 1016.5
20210925213050 65 156 3.0 7.0 0.04 1.19 1.18 92 1016.7
20210925211617 65 171 2.0 5.0 0.03 1.18 1.17 93 1017.0
20210925210130 66 157 2.0 5.0 0.00 1.14 1.13 92 1016.8
20210925204621 66 156 0.0 5.0 0.00 1.14 1.13 92 1016.7
20210925203047 66 157 1.0 6.0 0.00 1.14 1.13 92 1016.8
20210925201600 66 103 1.0 3.0 0.00 1.14 1.13 92 1016.9
20210925200036 67 102 1.0 4.0 0.04 1.14 1.13 92 1017.1
20210925194534 67 139 2.0 8.0 0.04 1.14 1.13 92 1017.2
20210925193029 67 123 0.0 3.0 0.04 1.14 1.13 92 1017.1
20210925191546 67 147 1.0 3.0 0.04 1.14 1.13 92 1017.3
20210925190044 68 146 0.0 3.0 0.00 1.12 1.10 92 1017.4
20210925184525 68 147 1.0 4.0 0.01 1.12 1.10 92 1017.4
20210925183059 68 147 2.0 3.0 0.02 1.12 1.10 92 1017.8
20210925181540 69 149 1.0 5.0 0.02 1.12 1.10 92 1017.8
20210925070129 65 191 4.0 10.0 0.49 0.63 0.59 93 1019.2
20210925064615 65 171 4.0 7.0 0.56 0.61 0.56 93 1019.3
20210925063129 65 120 3.0 9.0 0.54 0.57 0.54 93 1019.2
20210925061654 66 177 5.0 9.0 0.30 0.34 0.30 93 1019.4
20210925060059 66 171 6.0 13.0 0.10 0.14 0.10 93 1019.4
20210925054600 66 248 5.0 14.0 0.00 0.04 0.00 92 1019.8
20210925053101 66 224 3.0 7.0 0.00 0.04 0.00 92 1019.9
20210925051558 66 220 8.0 13.0 0.00 0.04 0.00 93 1019.8
20210925050107 65 113 7.0 14.0 0.00 0.04 0.04 92 1019.4